Time;durP1;ratioP1;P1;durP2;ratioP2;P2;SDS_P1;SDS_P2;PMS_P1;PMS_P2;Temp;Humidity;BMP_temperature;BMP_pressure;BME280_temperature;BME280_humidity;BME280_pressure;Samples;Min_cycle;Max_cycle;Signal;HPM_P1;HPM_P2
2024/02/22 00:01:10;;;;;;;224.30;57.28;;;;;;;;;;4991614;28;20165;-45
2024/02/22 00:03:36;;;;;;;226.88;58.80;;;;;;;;;;4992109;28;20545;-45
2024/02/22 00:06:02;;;;;;;225.90;59.15;;;;;;;;;;4991352;28;20176;-45
2024/02/22 00:08:28;;;;;;;226.80;60.88;;;;;;;;;;4991384;28;20208;-44
2024/02/22 00:10:54;;;;;;;226.27;58.87;;;;;;;;;;4991387;28;20559;-45
2024/02/22 00:13:21;;;;;;;238.25;69.20;;;;;;;;;;4988138;28;20458;-45
2024/02/22 00:15:47;;;;;;;224.70;59.63;;;;;;;;;;4990765;28;20183;-44
2024/02/22 00:18:13;;;;;;;226.10;58.58;;;;;;;;;;4991266;28;20260;-45
2024/02/22 00:20:39;;;;;;;224.35;58.92;;;;;;;;;;4991295;28;20176;-45
2024/02/22 00:23:05;;;;;;;225.60;59.03;;;;;;;;;;4991654;28;20204;-45
2024/02/22 00:25:32;;;;;;;225.27;58.72;;;;;;;;;;4991536;28;21039;-45
2024/02/22 00:27:58;;;;;;;226.50;59.67;;;;;;;;;;4991443;28;20199;-45
2024/02/22 00:30:25;;;;;;;227.73;60.30;;;;;;;;;;4991650;28;20591;-45
2024/02/22 00:32:52;;;;;;;226.10;59.63;;;;;;;;;;4991766;28;20411;-45
2024/02/22 00:35:18;;;;;;;227.45;60.65;;;;;;;;;;4991494;28;20204;-45
2024/02/22 00:37:44;;;;;;;225.98;59.17;;;;;;;;;;4992004;28;20180;-45
2024/02/22 00:40:13;;;;;;;226.45;58.90;;;;;;;;;;4991973;28;20722;-45
2024/02/22 00:42:39;;;;;;;225.23;59.50;;;;;;;;;;4992011;28;20648;-45
2024/02/22 00:45:06;;;;;;;227.27;62.15;;;;;;;;;;4991659;28;20194;-45
2024/02/22 00:47:32;;;;;;;226.30;60.13;;;;;;;;;;4991165;28;20184;-46
2024/02/22 00:49:58;;;;;;;224.17;59.30;;;;;;;;;;4988373;28;20221;-46
2024/02/22 00:52:23;;;;;;;223.57;59.70;;;;;;;;;;4991204;28;20530;-46
2024/02/22 00:54:49;;;;;;;226.60;61.33;;;;;;;;;;4990789;28;20459;-46
2024/02/22 00:57:15;;;;;;;224.63;59.27;;;;;;;;;;4990659;28;20423;-46
2024/02/22 00:59:41;;;;;;;226.77;60.83;;;;;;;;;;4991551;28;20466;-45
2024/02/22 01:02:07;;;;;;;225.83;60.30;;;;;;;;;;4991717;28;20423;-45
2024/02/22 01:04:33;;;;;;;225.90;60.50;;;;;;;;;;4990930;28;20431;-45
2024/02/22 01:07:00;;;;;;;226.57;60.65;;;;;;;;;;4990750;28;20782;-45
2024/02/22 01:09:26;;;;;;;226.73;59.90;;;;;;;;;;4990904;28;20201;-46
2024/02/22 01:11:53;;;;;;;225.70;60.58;;;;;;;;;;4989502;28;20184;-46
2024/02/22 01:14:22;;;;;;;226.60;59.90;;;;;;;;;;4990841;28;20699;-45
2024/02/22 01:16:48;;;;;;;226.82;60.53;;;;;;;;;;4990946;28;20197;-45
2024/02/22 01:19:15;;;;;;;225.57;60.13;;;;;;;;;;4991488;28;20197;-45
2024/02/22 01:21:41;;;;;;;225.60;60.25;;;;;;;;;;4991400;28;20614;-45
2024/02/22 01:24:07;;;;;;;225.10;59.85;;;;;;;;;;4991695;28;20184;-45
2024/02/22 01:26:33;;;;;;;225.63;60.60;;;;;;;;;;4990727;28;20179;-46
2024/02/22 01:28:59;;;;;;;223.67;59.10;;;;;;;;;;4991724;28;20621;-45
2024/02/22 01:31:25;;;;;;;225.23;59.67;;;;;;;;;;4994456;28;20430;-46
2024/02/22 01:33:51;;;;;;;228.17;61.67;;;;;;;;;;4992693;28;20482;-46
2024/02/22 01:36:17;;;;;;;226.93;60.47;;;;;;;;;;4994011;28;20431;-46
2024/02/22 01:38:43;;;;;;;229.25;61.10;;;;;;;;;;4993968;28;20443;-46
2024/02/22 01:41:10;;;;;;;228.30;60.75;;;;;;;;;;4994242;28;20707;-45
2024/02/22 01:43:37;;;;;;;225.35;59.08;;;;;;;;;;4994096;28;20181;-46
2024/02/22 01:46:03;;;;;;;225.13;59.45;;;;;;;;;;4994043;28;20380;-46
2024/02/22 01:48:30;;;;;;;226.82;58.97;;;;;;;;;;4993859;28;20215;-45
2024/02/22 01:50:56;;;;;;;226.75;60.22;;;;;;;;;;4994204;28;20191;-45
2024/02/22 01:53:23;;;;;;;228.52;61.50;;;;;;;;;;4993878;28;20764;-46
2024/02/22 01:55:52;;;;;;;229.23;60.92;;;;;;;;;;4993630;28;20179;-45
2024/02/22 01:58:18;;;;;;;226.20;58.90;;;;;;;;;;4993736;28;20275;-46
2024/02/22 02:00:45;;;;;;;230.48;62.92;;;;;;;;;;4993298;28;20279;-46
2024/02/22 02:03:11;;;;;;;225.13;58.60;;;;;;;;;;4993258;28;20176;-45
2024/02/22 02:05:37;;;;;;;225.53;59.37;;;;;;;;;;4993100;28;20180;-45
2024/02/22 02:08:03;;;;;;;225.63;58.92;;;;;;;;;;4993753;28;20412;-45
2024/02/22 02:10:29;;;;;;;224.63;58.45;;;;;;;;;;4993877;28;20556;-45
2024/02/22 02:13:02;;;;;;;227.05;59.28;;;;;;;;;;4993512;28;20181;-45
2024/02/22 02:15:28;;;;;;;228.50;61.28;;;;;;;;;;4993065;28;20224;-45
2024/02/22 02:17:54;;;;;;;226.52;58.63;;;;;;;;;;4993534;28;20668;-45
2024/02/22 02:20:21;;;;;;;225.23;58.75;;;;;;;;;;4993547;28;20196;-45
2024/02/22 02:22:49;;;;;;;225.45;59.20;;;;;;;;;;4993581;28;20440;-45
2024/02/22 02:25:17;;;;;;;229.82;60.97;;;;;;;;;;4993403;28;20580;-45
2024/02/22 02:27:43;;;;;;;227.27;60.17;;;;;;;;;;4993662;28;20176;-45
2024/02/22 02:30:09;;;;;;;224.90;58.63;;;;;;;;;;4993424;28;20201;-45
2024/02/22 02:32:37;;;;;;;227.00;59.45;;;;;;;;;;4993293;28;20174;-45
2024/02/22 02:35:03;;;;;;;227.63;59.00;;;;;;;;;;4986578;28;20201;-45
2024/02/22 02:37:29;;;;;;;226.40;59.00;;;;;;;;;;4993131;28;20176;-45
2024/02/22 02:39:55;;;;;;;225.87;58.80;;;;;;;;;;4992632;28;20223;-45
2024/02/22 02:42:21;;;;;;;228.70;60.78;;;;;;;;;;4993662;28;20415;-45
2024/02/22 02:44:48;;;;;;;228.43;61.27;;;;;;;;;;4992699;28;20578;-46
2024/02/22 02:47:14;;;;;;;227.20;59.42;;;;;;;;;;4992652;28;20423;-46
2024/02/22 02:49:40;;;;;;;227.43;59.13;;;;;;;;;;4992899;28;20224;-45
2024/02/22 02:52:06;;;;;;;227.55;61.13;;;;;;;;;;4993204;28;20211;-45
2024/02/22 02:54:32;;;;;;;226.17;59.47;;;;;;;;;;4993197;28;20246;-45
2024/02/22 02:56:58;;;;;;;227.00;59.70;;;;;;;;;;4992647;28;20419;-46
2024/02/22 02:59:24;;;;;;;227.67;61.57;;;;;;;;;;4992841;28;20628;-46
2024/02/22 03:01:50;;;;;;;223.63;57.30;;;;;;;;;;4993020;28;20455;-46
2024/02/22 03:04:17;;;;;;;229.55;59.80;;;;;;;;;;4992851;28;20420;-46
2024/02/22 03:06:43;;;;;;;228.70;60.22;;;;;;;;;;4992502;28;20191;-45
2024/02/22 03:09:09;;;;;;;226.18;58.33;;;;;;;;;;4992751;28;20443;-46
2024/02/22 03:11:36;;;;;;;228.63;61.17;;;;;;;;;;4992656;28;20627;-45
2024/02/22 03:14:02;;;;;;;228.02;61.17;;;;;;;;;;4992702;28;20978;-45
2024/02/22 03:16:28;;;;;;;227.82;59.25;;;;;;;;;;4992704;28;20200;-45
2024/02/22 03:18:54;;;;;;;228.07;59.97;;;;;;;;;;4992563;28;20227;-45
2024/02/22 03:21:20;;;;;;;226.15;58.08;;;;;;;;;;4992622;28;20415;-45
2024/02/22 03:23:46;;;;;;;227.20;60.63;;;;;;;;;;4992480;28;20224;-45
2024/02/22 03:26:12;;;;;;;229.45;62.00;;;;;;;;;;4992130;28;20188;-45
2024/02/22 03:28:38;;;;;;;227.20;59.00;;;;;;;;;;4990889;28;20600;-46
2024/02/22 03:31:07;;;;;;;226.93;60.20;;;;;;;;;;4992585;28;20276;-45
2024/02/22 03:33:33;;;;;;;228.93;61.58;;;;;;;;;;4992132;28;20531;-45
2024/02/22 03:36:00;;;;;;;227.97;60.90;;;;;;;;;;4992108;28;20681;-45
2024/02/22 03:38:26;;;;;;;224.93;59.88;;;;;;;;;;4992121;28;20447;-45
2024/02/22 03:40:52;;;;;;;227.20;60.08;;;;;;;;;;4992888;28;20635;-46
2024/02/22 03:43:18;;;;;;;228.75;61.80;;;;;;;;;;4992046;28;20176;-46
2024/02/22 03:45:45;;;;;;;231.17;63.27;;;;;;;;;;4991875;28;20177;-47
2024/02/22 03:48:11;;;;;;;230.48;61.75;;;;;;;;;;4991951;28;20841;-45
2024/02/22 03:50:37;;;;;;;227.23;60.47;;;;;;;;;;4992058;28;20279;-46
2024/02/22 03:53:04;;;;;;;230.57;62.50;;;;;;;;;;4991391;28;20415;-46
2024/02/22 03:55:30;;;;;;;228.43;61.20;;;;;;;;;;4991431;28;20605;-46
2024/02/22 03:57:56;;;;;;;230.65;63.22;;;;;;;;;;4991822;28;20168;-46
2024/02/22 04:00:22;;;;;;;233.10;64.90;;;;;;;;;;4992115;28;20180;-46
2024/02/22 04:02:48;;;;;;;229.60;62.20;;;;;;;;;;4991908;28;20181;-46
2024/02/22 04:05:15;;;;;;;234.47;65.80;;;;;;;;;;4991525;28;20192;-45
2024/02/22 04:07:42;;;;;;;228.77;60.80;;;;;;;;;;4991607;28;20907;-46
2024/02/22 04:10:08;;;;;;;231.55;64.32;;;;;;;;;;4991456;28;20199;-46
2024/02/22 04:12:34;;;;;;;229.73;61.55;;;;;;;;;;4991628;28;20196;-46
2024/02/22 04:15:00;;;;;;;229.52;61.58;;;;;;;;;;4991386;28;20201;-45
2024/02/22 04:17:26;;;;;;;229.33;61.60;;;;;;;;;;4991628;28;20637;-47
2024/02/22 04:19:53;;;;;;;232.30;63.42;;;;;;;;;;4991579;28;20436;-45
2024/02/22 04:22:19;;;;;;;231.68;63.35;;;;;;;;;;4991854;28;20189;-46
2024/02/22 04:24:45;;;;;;;232.18;64.35;;;;;;;;;;4991297;28;20295;-46
2024/02/22 04:27:11;;;;;;;229.85;61.70;;;;;;;;;;4991275;28;20185;-45
2024/02/22 04:29:37;;;;;;;231.18;63.00;;;;;;;;;;4991319;28;20236;-45
2024/02/22 04:32:03;;;;;;;228.97;61.77;;;;;;;;;;4991544;28;20216;-46
2024/02/22 04:34:29;;;;;;;231.80;64.38;;;;;;;;;;4991158;28;20455;-46
2024/02/22 04:36:56;;;;;;;230.33;62.70;;;;;;;;;;4991077;28;20218;-46
2024/02/22 04:39:21;;;;;;;231.00;62.92;;;;;;;;;;4991127;28;20443;-46
2024/02/22 04:41:47;;;;;;;228.13;61.30;;;;;;;;;;4991424;28;20401;-45
2024/02/22 04:44:13;;;;;;;229.73;62.57;;;;;;;;;;4991672;28;20423;-46
2024/02/22 04:46:39;;;;;;;233.57;66.47;;;;;;;;;;4991072;28;20419;-46
2024/02/22 04:49:06;;;;;;;230.38;61.40;;;;;;;;;;4991340;28;20511;-46
2024/02/22 04:51:35;;;;;;;229.30;62.50;;;;;;;;;;4991282;28;20177;-45
2024/02/22 04:54:01;;;;;;;230.48;62.30;;;;;;;;;;4991382;28;20267;-46
2024/02/22 04:56:28;;;;;;;231.63;63.47;;;;;;;;;;4990934;28;20180;-46
2024/02/22 04:58:55;;;;;;;230.30;63.08;;;;;;;;;;4991147;28;20192;-46
2024/02/22 05:01:21;;;;;;;228.77;62.13;;;;;;;;;;4991293;28;20188;-45
2024/02/22 05:03:48;;;;;;;230.45;62.03;;;;;;;;;;4993192;28;20255;-46
2024/02/22 05:06:14;;;;;;;230.65;63.15;;;;;;;;;;4995017;28;20208;-46
2024/02/22 05:08:40;;;;;;;230.73;64.55;;;;;;;;;;4994886;28;20711;-46
2024/02/22 05:11:07;;;;;;;230.20;62.97;;;;;;;;;;4995136;28;20264;-46
2024/02/22 05:13:33;;;;;;;232.43;64.50;;;;;;;;;;4994808;28;20197;-46
2024/02/22 05:15:59;;;;;;;232.13;62.47;;;;;;;;;;4994665;28;20192;-46
2024/02/22 05:18:25;;;;;;;230.23;62.28;;;;;;;;;;4994759;28;20215;-46
2024/02/22 05:20:51;;;;;;;232.47;64.57;;;;;;;;;;4995206;28;20205;-46
2024/02/22 05:23:18;;;;;;;231.67;62.97;;;;;;;;;;4995054;28;20407;-46
2024/02/22 05:25:44;;;;;;;231.68;64.00;;;;;;;;;;4994402;28;20446;-46
2024/02/22 05:28:10;;;;;;;230.90;64.15;;;;;;;;;;4994815;28;20640;-46
2024/02/22 05:30:36;;;;;;;230.75;62.33;;;;;;;;;;4994550;28;20584;-45
2024/02/22 05:33:02;;;;;;;230.43;61.90;;;;;;;;;;4994675;28;20304;-46
2024/02/22 05:35:29;;;;;;;234.48;64.97;;;;;;;;;;4993931;28;20509;-46
2024/02/22 05:37:54;;;;;;;231.57;63.08;;;;;;;;;;4994502;28;20649;-46
2024/02/22 05:40:20;;;;;;;228.63;61.57;;;;;;;;;;4994236;28;20212;-46
2024/02/22 05:42:48;;;;;;;229.97;63.00;;;;;;;;;;4994417;28;20596;-46
2024/02/22 05:45:14;;;;;;;232.73;63.72;;;;;;;;;;4994544;28;21087;-46
2024/02/22 05:47:40;;;;;;;230.77;62.50;;;;;;;;;;4994654;28;20596;-45
2024/02/22 05:50:09;;;;;;;231.47;62.27;;;;;;;;;;4994769;28;20197;-45
2024/02/22 05:52:35;;;;;;;230.13;61.30;;;;;;;;;;4994600;28;20411;-45
2024/02/22 05:55:02;;;;;;;229.43;60.40;;;;;;;;;;4993989;28;20650;-45
2024/02/22 05:57:28;;;;;;;229.75;62.03;;;;;;;;;;4994412;28;20440;-45
2024/02/22 05:59:54;;;;;;;230.87;62.80;;;;;;;;;;4994562;28;20703;-45
2024/02/22 06:02:20;;;;;;;229.47;61.80;;;;;;;;;;4994309;28;20969;-45
2024/02/22 06:04:46;;;;;;;233.60;63.83;;;;;;;;;;4994106;28;20450;-45
2024/02/22 06:07:13;;;;;;;229.50;62.08;;;;;;;;;;4994127;28;20407;-45
2024/02/22 06:09:39;;;;;;;232.67;64.57;;;;;;;;;;4994363;28;20205;-45
2024/02/22 06:12:05;;;;;;;231.47;63.80;;;;;;;;;;4994460;28;20412;-45
2024/02/22 06:14:31;;;;;;;231.10;62.20;;;;;;;;;;4993381;28;20448;-45
2024/02/22 06:16:57;;;;;;;229.07;61.97;;;;;;;;;;4993811;28;20218;-45
2024/02/22 06:19:23;;;;;;;230.55;62.55;;;;;;;;;;4993833;28;20452;-45
2024/02/22 06:21:49;;;;;;;230.80;62.57;;;;;;;;;;4993787;28;20226;-45
2024/02/22 06:24:16;;;;;;;230.67;63.10;;;;;;;;;;4994117;28;20424;-45
2024/02/22 06:26:42;;;;;;;230.70;64.03;;;;;;;;;;4993423;28;20810;-45
2024/02/22 06:29:08;;;;;;;230.77;63.47;;;;;;;;;;4993760;28;20193;-45
2024/02/22 06:31:33;;;;;;;230.93;64.43;;;;;;;;;;4993183;28;20951;-45
2024/02/22 06:34:01;;;;;;;235.57;68.23;;;;;;;;;;4992583;28;20209;-45
2024/02/22 06:36:28;;;;;;;229.65;63.47;;;;;;;;;;4992890;28;20784;-45
2024/02/22 06:38:53;;;;;;;230.35;63.03;;;;;;;;;;4991973;28;20236;-45
2024/02/22 06:41:20;;;;;;;228.43;62.77;;;;;;;;;;4993320;28;20256;-45
2024/02/22 06:43:46;;;;;;;231.77;62.75;;;;;;;;;;4993389;28;20904;-45
2024/02/22 06:46:12;;;;;;;231.48;64.20;;;;;;;;;;4992901;28;20231;-45
2024/02/22 06:48:38;;;;;;;231.35;63.55;;;;;;;;;;4993059;28;20617;-45
2024/02/22 06:51:04;;;;;;;228.57;61.60;;;;;;;;;;4993163;28;20227;-45
2024/02/22 06:53:30;;;;;;;231.90;64.13;;;;;;;;;;4992988;28;20424;-45
2024/02/22 06:55:56;;;;;;;231.17;62.77;;;;;;;;;;4993132;28;20624;-45
2024/02/22 06:58:22;;;;;;;229.73;61.77;;;;;;;;;;4993090;28;20432;-45
2024/02/22 07:00:48;;;;;;;230.77;61.07;;;;;;;;;;4992445;28;20428;-46
2024/02/22 07:03:14;;;;;;;230.73;61.53;;;;;;;;;;4992234;28;20471;-47
2024/02/22 07:05:40;;;;;;;230.25;61.08;;;;;;;;;;4987959;28;20675;-44
2024/02/22 07:08:06;;;;;;;234.67;65.23;;;;;;;;;;4992074;28;20284;-45
2024/02/22 07:10:32;;;;;;;235.65;65.20;;;;;;;;;;4992075;28;20416;-45
2024/02/22 07:12:58;;;;;;;231.03;61.40;;;;;;;;;;4992515;28;20611;-45
2024/02/22 07:15:24;;;;;;;230.05;62.47;;;;;;;;;;4991655;28;20455;-45
2024/02/22 07:17:50;;;;;;;231.87;63.53;;;;;;;;;;4992231;28;20533;-45
2024/02/22 07:20:16;;;;;;;232.03;64.67;;;;;;;;;;4992035;28;20808;-46
2024/02/22 07:22:43;;;;;;;231.80;65.40;;;;;;;;;;4991752;28;20412;-46
2024/02/22 07:25:11;;;;;;;235.23;67.10;;;;;;;;;;4991620;28;20435;-47
2024/02/22 07:27:39;;;;;;;235.70;66.43;;;;;;;;;;4990607;28;20265;-45
2024/02/22 07:30:06;;;;;;;234.43;65.95;;;;;;;;;;4988263;28;20569;-46
2024/02/22 07:32:32;;;;;;;235.48;66.57;;;;;;;;;;4991288;28;20287;-46
2024/02/22 07:35:00;;;;;;;235.60;67.95;;;;;;;;;;4991242;28;20201;-46
2024/02/22 07:37:26;;;;;;;235.32;66.28;;;;;;;;;;4991254;28;20192;-46
2024/02/22 07:39:53;;;;;;;236.03;67.70;;;;;;;;;;4991109;28;20213;-45
2024/02/22 07:42:19;;;;;;;232.45;66.88;;;;;;;;;;4991281;28;20785;-46
2024/02/22 07:44:45;;;;;;;236.65;68.57;;;;;;;;;;4991359;28;20192;-46
2024/02/22 07:47:12;;;;;;;235.73;67.17;;;;;;;;;;4991188;28;20260;-45
2024/02/22 07:49:38;;;;;;;235.50;66.22;;;;;;;;;;4990839;28;20432;-45
2024/02/22 07:52:06;;;;;;;236.25;66.75;;;;;;;;;;4991169;28;20667;-45
2024/02/22 07:54:32;;;;;;;236.52;67.82;;;;;;;;;;4991325;28;20671;-45
2024/02/22 07:56:58;;;;;;;234.88;66.05;;;;;;;;;;4990545;28;20169;-45
2024/02/22 07:59:24;;;;;;;233.13;65.53;;;;;;;;;;4991499;28;20256;-45
2024/02/22 08:01:50;;;;;;;237.57;66.40;;;;;;;;;;4991667;28;20910;-45
2024/02/22 08:04:16;;;;;;;235.53;67.07;;;;;;;;;;4991914;28;20232;-45
2024/02/22 08:06:42;;;;;;;238.47;69.77;;;;;;;;;;4991245;28;20934;-45
2024/02/22 08:09:08;;;;;;;237.93;68.10;;;;;;;;;;4991591;28;20458;-45
2024/02/22 08:11:34;;;;;;;236.57;67.90;;;;;;;;;;4991947;28;20425;-45
2024/02/22 08:14:00;;;;;;;240.57;72.73;;;;;;;;;;4991419;28;20463;-45
2024/02/22 08:16:26;;;;;;;239.07;72.25;;;;;;;;;;4991468;28;20416;-45
2024/02/22 08:18:52;;;;;;;235.37;68.40;;;;;;;;;;4991305;28;20209;-45
2024/02/22 08:21:21;;;;;;;237.60;69.43;;;;;;;;;;4991502;28;20406;-45
2024/02/22 08:23:55;;;;;;;237.77;68.78;;;;;;;;;;4991379;28;20191;-45
2024/02/22 08:26:21;;;;;;;237.63;70.20;;;;;;;;;;4991463;28;20172;-45
2024/02/22 08:28:47;;;;;;;235.25;66.40;;;;;;;;;;4991611;28;20288;-45
2024/02/22 08:31:13;;;;;;;236.30;68.90;;;;;;;;;;4991874;28;20189;-45
2024/02/22 08:33:41;;;;;;;235.75;67.50;;;;;;;;;;4991474;28;20891;-45
2024/02/22 08:36:07;;;;;;;236.77;69.85;;;;;;;;;;4991171;28;20595;-45
2024/02/22 08:38:33;;;;;;;239.80;71.93;;;;;;;;;;4994514;28;20307;-44
2024/02/22 08:40:59;;;;;;;236.37;68.37;;;;;;;;;;4997770;28;20732;-44
2024/02/22 08:43:25;;;;;;;236.82;67.47;;;;;;;;;;4997847;28;20495;-45
2024/02/22 08:45:51;;;;;;;236.30;66.72;;;;;;;;;;4997247;28;20178;-45
2024/02/22 08:48:17;;;;;;;234.90;66.63;;;;;;;;;;4997932;28;20198;-45
2024/02/22 08:50:44;;;;;;;236.10;65.85;;;;;;;;;;4997790;28;20180;-45
2024/02/22 08:53:10;;;;;;;235.40;65.45;;;;;;;;;;4997833;28;20276;-45
2024/02/22 08:55:36;;;;;;;237.88;67.65;;;;;;;;;;4997304;28;20301;-45
2024/02/22 08:58:02;;;;;;;236.55;68.07;;;;;;;;;;4997636;28;20598;-45
2024/02/22 09:00:28;;;;;;;236.57;68.03;;;;;;;;;;4997559;28;20210;-45
2024/02/22 09:02:54;;;;;;;239.48;70.47;;;;;;;;;;4997657;28;20182;-45
2024/02/22 09:05:20;;;;;;;236.50;68.85;;;;;;;;;;4997777;28;20307;-45
2024/02/22 09:07:50;;;;;;;238.95;69.80;;;;;;;;;;4997464;28;20962;-45
2024/02/22 09:10:16;;;;;;;238.15;68.25;;;;;;;;;;4997667;28;20699;-45
2024/02/22 09:12:43;;;;;;;240.30;69.50;;;;;;;;;;4997685;28;20182;-45
2024/02/22 09:15:10;;;;;;;246.55;76.20;;;;;;;;;;4997308;28;20567;-45
2024/02/22 09:17:36;;;;;;;242.25;71.78;;;;;;;;;;4997525;28;20180;-45
2024/02/22 09:20:04;;;;;;;241.48;73.75;;;;;;;;;;4997420;28;20209;-45
2024/02/22 09:22:30;;;;;;;242.85;73.00;;;;;;;;;;4997200;28;20202;-44
2024/02/22 09:24:56;;;;;;;241.00;71.27;;;;;;;;;;4997439;28;20178;-45
2024/02/22 09:27:22;;;;;;;240.30;71.27;;;;;;;;;;4997284;28;20421;-45
2024/02/22 09:29:48;;;;;;;240.33;71.03;;;;;;;;;;4997476;28;20575;-45
2024/02/22 09:32:14;;;;;;;243.70;74.45;;;;;;;;;;4998171;28;20510;-44
2024/02/22 09:34:40;;;;;;;240.07;69.18;;;;;;;;;;4998279;28;20275;-44
2024/02/22 09:37:06;;;;;;;241.50;71.33;;;;;;;;;;4998019;28;20267;-45
2024/02/22 09:39:32;;;;;;;243.35;73.05;;;;;;;;;;5012149;23;20495;-47
2024/02/22 09:41:58;;;;;;;239.43;68.38;;;;;;;;;;4998087;28;20565;-46
2024/02/22 09:44:25;;;;;;;239.27;71.13;;;;;;;;;;4998433;28;20177;-47
2024/02/22 09:46:53;;;;;;;240.70;71.22;;;;;;;;;;4998046;28;20198;-46
2024/02/22 09:49:22;;;;;;;238.13;68.85;;;;;;;;;;4997250;28;20714;-47
2024/02/22 09:51:53;;;;;;;240.10;70.30;;;;;;;;;;4995618;28;20650;-47
2024/02/22 09:54:20;;;;;;;236.88;66.30;;;;;;;;;;4995525;28;20690;-47
2024/02/22 09:56:47;;;;;;;237.57;70.32;;;;;;;;;;4995229;28;20184;-46
2024/02/22 09:59:13;;;;;;;239.18;69.72;;;;;;;;;;4995587;28;20207;-47
2024/02/22 10:01:40;;;;;;;240.25;68.97;;;;;;;;;;4995886;28;20425;-47
2024/02/22 10:04:10;;;;;;;235.82;66.10;;;;;;;;;;4995753;28;20307;-47
2024/02/22 10:06:37;;;;;;;239.95;68.45;;;;;;;;;;4995074;28;20295;-48
2024/02/22 10:09:04;;;;;;;240.40;70.77;;;;;;;;;;4995241;28;20212;-47
2024/02/22 10:11:30;;;;;;;241.00;69.40;;;;;;;;;;4993589;28;20410;-47
2024/02/22 10:14:01;;;;;;;240.45;69.85;;;;;;;;;;4994761;28;20719;-47
2024/02/22 10:16:27;;;;;;;238.20;66.95;;;;;;;;;;4995048;28;20403;-47
2024/02/22 10:19:14;;;;;;;240.10;70.10;;;;;;;;;;4995052;28;20181;-47
2024/02/22 10:21:40;;;;;;;241.65;71.20;;;;;;;;;;4993606;28;20262;-46
2024/02/22 10:24:08;;;;;;;240.90;69.33;;;;;;;;;;4994654;28;20268;-46
2024/02/22 10:26:34;;;;;;;236.73;66.80;;;;;;;;;;4994776;28;20486;-46
2024/02/22 10:29:06;;;;;;;240.57;69.18;;;;;;;;;;4995984;28;20628;-47
2024/02/22 10:31:42;;;;;;;237.10;66.18;;;;;;;;;;4995306;28;20184;-46
2024/02/22 10:34:08;;;;;;;236.80;65.75;;;;;;;;;;4995067;28;20209;-48
2024/02/22 10:36:36;;;;;;;238.85;68.88;;;;;;;;;;4994392;28;20184;-46
2024/02/22 10:39:03;;;;;;;238.00;67.93;;;;;;;;;;4994774;28;20176;-46
2024/02/22 10:41:29;;;;;;;242.27;72.07;;;;;;;;;;4995652;28;20178;-48
2024/02/22 10:43:57;;;;;;;244.18;76.15;;;;;;;;;;4994264;28;20198;-48
2024/02/22 10:46:26;;;;;;;247.95;79.70;;;;;;;;;;4993555;28;20211;-48
2024/02/22 10:48:52;;;;;;;251.85;82.63;;;;;;;;;;4994044;28;20190;-47
2024/02/22 10:51:22;;;;;;;252.13;82.23;;;;;;;;;;4995074;28;20538;-47
2024/02/22 10:53:55;;;;;;;251.18;80.25;;;;;;;;;;4994297;28;20459;-48
2024/02/22 10:56:25;;;;;;;250.27;81.40;;;;;;;;;;4994118;28;20189;-47
2024/02/22 10:58:52;;;;;;;250.70;82.25;;;;;;;;;;4994156;28;20203;-46
2024/02/22 11:01:19;;;;;;;252.88;84.50;;;;;;;;;;4993909;28;20173;-48
2024/02/22 11:03:46;;;;;;;256.30;87.57;;;;;;;;;;4994101;28;20187;-47
2024/02/22 11:06:14;;;;;;;255.43;85.55;;;;;;;;;;4993171;28;20208;-49
2024/02/22 11:08:48;;;;;;;262.80;96.50;;;;;;;;;;4993125;28;20178;-50
2024/02/22 11:11:26;;;;;;;260.58;92.93;;;;;;;;;;4992754;28;20198;-48
2024/02/22 11:13:59;;;;;;;262.92;98.35;;;;;;;;;;4993340;28;20214;-48
2024/02/22 11:16:35;;;;;;;260.25;95.50;;;;;;;;;;4993346;28;20573;-49
2024/02/22 11:19:09;;;;;;;259.38;95.60;;;;;;;;;;4993770;28;20657;-47
2024/02/22 11:21:35;;;;;;;255.50;90.60;;;;;;;;;;4994244;28;20221;-47
2024/02/22 11:24:25;;;;;;;255.85;90.93;;;;;;;;;;4995003;28;20178;-48
2024/02/22 11:26:51;;;;;;;251.88;86.65;;;;;;;;;;4988655;28;20201;-47
2024/02/22 11:29:29;;;;;;;253.38;87.50;;;;;;;;;;4994755;28;20201;-46
2024/02/22 11:31:55;;;;;;;252.77;85.55;;;;;;;;;;4993927;28;20234;-49
2024/02/22 11:34:21;;;;;;;249.47;82.37;;;;;;;;;;4993999;28;20212;-47
2024/02/22 11:36:47;;;;;;;249.60;82.80;;;;;;;;;;4993478;28;20417;-48
2024/02/22 11:39:18;;;;;;;247.17;79.10;;;;;;;;;;4994236;28;20213;-48
2024/02/22 11:41:47;;;;;;;248.82;80.60;;;;;;;;;;4994947;28;20899;-48
2024/02/22 11:44:15;;;;;;;248.73;83.05;;;;;;;;;;4994371;28;20176;-48
2024/02/22 11:46:41;;;;;;;248.50;81.82;;;;;;;;;;4993763;28;20232;-47
2024/02/22 11:49:08;;;;;;;248.10;79.10;;;;;;;;;;4988353;28;20185;-46
2024/02/22 11:51:35;;;;;;;246.75;78.70;;;;;;;;;;4994182;28;20422;-46
2024/02/22 11:54:01;;;;;;;248.30;80.82;;;;;;;;;;4994288;28;20220;-48
2024/02/22 11:56:27;;;;;;;249.23;80.82;;;;;;;;;;4993004;28;20170;-46
2024/02/22 11:58:57;;;;;;;247.18;78.05;;;;;;;;;;4993188;28;20710;-46
2024/02/22 12:01:24;;;;;;;247.65;80.38;;;;;;;;;;4994061;28;20169;-48
2024/02/22 12:03:51;;;;;;;249.45;81.18;;;;;;;;;;4994309;28;20203;-47
2024/02/22 12:06:18;;;;;;;248.05;81.00;;;;;;;;;;4994351;28;20271;-47
2024/02/22 12:08:45;;;;;;;253.05;86.80;;;;;;;;;;4993542;28;20181;-47
2024/02/22 12:11:14;;;;;;;253.93;87.43;;;;;;;;;;4993075;28;20697;-48
2024/02/22 12:13:41;;;;;;;265.50;101.40;;;;;;;;;;4989712;28;20177;-47
2024/02/22 12:16:10;;;;;;;260.70;98.03;;;;;;;;;;4989525;28;20244;-48
2024/02/22 12:18:39;;;;;;;260.35;96.13;;;;;;;;;;4992199;28;20185;-48
2024/02/22 12:21:11;;;;;;;260.10;98.03;;;;;;;;;;4993562;28;20275;-47
2024/02/22 12:23:37;;;;;;;262.67;98.37;;;;;;;;;;4992761;28;20180;-48
2024/02/22 12:26:06;;;;;;;264.30;102.18;;;;;;;;;;4991794;28;20454;-47
2024/02/22 12:28:35;;;;;;;259.33;99.43;;;;;;;;;;4992221;28;20174;-46
2024/02/22 12:31:03;;;;;;;265.07;101.80;;;;;;;;;;4992289;28;20428;-49
2024/02/22 12:33:29;;;;;;;261.80;99.33;;;;;;;;;;4992931;28;20473;-49
2024/02/22 12:35:57;;;;;;;260.67;98.83;;;;;;;;;;4991907;28;20966;-49
2024/02/22 12:38:23;;;;;;;259.40;97.53;;;;;;;;;;4993408;28;20424;-49
2024/02/22 12:40:49;;;;;;;256.77;94.57;;;;;;;;;;4993082;28;20224;-48
2024/02/22 12:43:18;;;;;;;257.55;92.55;;;;;;;;;;4993764;28;20481;-46
2024/02/22 12:45:45;;;;;;;259.20;94.13;;;;;;;;;;4993722;28;20191;-47
2024/02/22 12:48:11;;;;;;;254.55;88.75;;;;;;;;;;4994391;28;20639;-49
2024/02/22 12:50:38;;;;;;;253.73;87.22;;;;;;;;;;4993419;28;20198;-47
2024/02/22 12:53:05;;;;;;;248.38;81.22;;;;;;;;;;4993853;28;20199;-49
2024/02/22 12:55:30;;;;;;;249.00;82.72;;;;;;;;;;4993378;28;20207;-47
2024/02/22 12:57:56;;;;;;;246.17;78.63;;;;;;;;;;4993566;28;20226;-48
2024/02/22 13:00:23;;;;;;;247.37;79.47;;;;;;;;;;4993093;28;20519;-49
2024/02/22 13:02:49;;;;;;;245.52;75.85;;;;;;;;;;4993526;28;20459;-47
2024/02/22 13:05:16;;;;;;;248.13;79.05;;;;;;;;;;4992545;28;20180;-49
2024/02/22 13:07:42;;;;;;;245.35;77.35;;;;;;;;;;4993993;28;20644;-47
2024/02/22 13:10:08;;;;;;;247.55;76.95;;;;;;;;;;4993236;28;20766;-49
2024/02/22 13:12:37;;;;;;;245.80;76.93;;;;;;;;;;4992867;28;20572;-48
2024/02/22 13:15:04;;;;;;;242.07;75.15;;;;;;;;;;4992403;28;20278;-48
2024/02/22 13:17:29;;;;;;;246.95;79.70;;;;;;;;;;4993008;28;20227;-46
2024/02/22 13:19:55;;;;;;;248.17;80.40;;;;;;;;;;4992400;28;20211;-48
2024/02/22 13:22:21;;;;;;;251.87;85.77;;;;;;;;;;4992084;28;20417;-48
2024/02/22 13:24:47;;;;;;;249.67;83.57;;;;;;;;;;4992701;28;20421;-48
2024/02/22 13:27:15;;;;;;;251.98;87.22;;;;;;;;;;4995124;28;20416;-48
2024/02/22 13:29:41;;;;;;;253.93;91.30;;;;;;;;;;4996618;28;20231;-48
2024/02/22 13:32:08;;;;;;;263.05;101.80;;;;;;;;;;4993536;28;20273;-46
2024/02/22 13:34:34;;;;;;;253.30;86.05;;;;;;;;;;4992432;28;20197;-47
2024/02/22 13:37:00;;;;;;;254.60;89.00;;;;;;;;;;4994182;28;20518;-48
2024/02/22 13:39:27;;;;;;;249.03;81.73;;;;;;;;;;4996424;28;20264;-48
2024/02/22 13:41:58;;;;;;;252.65;84.85;;;;;;;;;;4987250;28;20417;-48
2024/02/22 13:44:24;;;;;;;246.63;80.38;;;;;;;;;;4996999;28;20177;-47
2024/02/22 13:46:51;;;;;;;249.85;82.50;;;;;;;;;;4995982;28;20185;-47
2024/02/22 13:49:18;;;;;;;249.80;82.15;;;;;;;;;;4997809;28;20192;-47
2024/02/22 13:51:46;;;;;;;247.60;79.88;;;;;;;;;;4996869;28;20189;-48
2024/02/22 13:54:12;;;;;;;246.63;79.75;;;;;;;;;;4996647;28;20190;-49
2024/02/22 13:56:39;;;;;;;250.90;82.97;;;;;;;;;;4996476;28;20192;-47
2024/02/22 13:59:05;;;;;;;249.65;82.38;;;;;;;;;;4996579;28;20169;-49
2024/02/22 14:01:30;;;;;;;248.38;79.22;;;;;;;;;;4996841;28;20307;-47